createdAt,value
2017-12-22T00:00:44.867Z,0
2017-12-22T00:01:46.116Z,0
2017-12-22T00:02:44.779Z,0
2017-12-22T00:03:45.023Z,0
2017-12-22T00:04:44.787Z,0
2017-12-22T00:05:44.994Z,0
2017-12-22T00:06:44.728Z,0
2017-12-22T00:07:44.993Z,0
2017-12-22T00:08:44.759Z,0
2017-12-22T00:09:44.704Z,0
2017-12-22T00:10:44.976Z,0
2017-12-22T00:11:44.758Z,0
2017-12-22T00:12:44.748Z,0
2017-12-22T00:13:44.955Z,0
2017-12-22T00:14:44.934Z,0
2017-12-22T00:15:44.739Z,0
2017-12-22T00:16:44.180Z,0
2017-12-22T00:17:44.679Z,0
2017-12-22T00:18:44.794Z,0
2017-12-22T00:19:44.912Z,0
2017-12-22T00:20:44.920Z,0
2017-12-22T00:21:44.701Z,0
2017-12-22T00:22:44.658Z,0
2017-12-22T00:23:44.639Z,0
2017-12-22T00:24:44.883Z,0
2017-12-22T00:25:44.890Z,0
2017-12-22T00:26:44.641Z,0
2017-12-22T00:27:44.878Z,0
2017-12-22T00:28:44.861Z,0
2017-12-22T00:29:44.859Z,0
2017-12-22T00:30:44.856Z,0
2017-12-22T00:31:48.001Z,0
2017-12-22T00:32:44.835Z,0
2017-12-22T00:33:44.586Z,0
2017-12-22T00:34:44.577Z,0
2017-12-22T00:35:44.606Z,0
2017-12-22T00:36:44.573Z,0
2017-12-22T00:37:44.554Z,0
2017-12-22T00:38:44.548Z,0
2017-12-22T00:39:44.863Z,0
2017-12-22T00:40:44.547Z,0
2017-12-22T00:41:44.788Z,0
2017-12-22T00:42:44.534Z,0
2017-12-22T00:43:44.530Z,0
2017-12-22T00:44:44.779Z,0
2017-12-22T00:45:44.268Z,0
2017-12-22T00:46:44.756Z,0
2017-12-22T00:47:44.517Z,0
2017-12-22T00:48:44.499Z,0
2017-12-22T00:49:44.743Z,0
2017-12-22T00:50:44.487Z,0
2017-12-22T00:51:44.727Z,0
2017-12-22T00:52:44.725Z,0
2017-12-22T00:53:44.732Z,0
2017-12-22T00:54:44.222Z,0
2017-12-22T00:55:44.704Z,0
2017-12-22T00:56:44.446Z,0
2017-12-22T00:57:44.699Z,0
2017-12-22T00:58:44.443Z,0
2017-12-22T00:59:44.687Z,0
2017-12-22T01:00:44.695Z,0
2017-12-22T01:01:44.435Z,0
2017-12-22T01:02:46.537Z,0
2017-12-22T01:03:44.676Z,0
2017-12-22T01:04:44.173Z,0
2017-12-22T01:05:44.658Z,0
2017-12-22T01:06:44.142Z,0
2017-12-22T01:07:44.643Z,0
2017-12-22T01:08:44.646Z,0
2017-12-22T01:09:44.406Z,0
2017-12-22T01:10:44.630Z,0
2017-12-22T01:11:44.625Z,0
2017-12-22T01:12:44.624Z,0
2017-12-22T01:13:44.637Z,0
2017-12-22T01:14:44.355Z,0
2017-12-22T01:15:44.615Z,0
2017-12-22T01:16:44.376Z,0
2017-12-22T01:17:44.610Z,0
2017-12-22T01:18:44.586Z,0
2017-12-22T01:19:44.326Z,0
2017-12-22T01:20:44.585Z,0
2017-12-22T01:21:44.324Z,0
2017-12-22T01:22:44.569Z,0
2017-12-22T01:23:44.561Z,0
2017-12-22T01:24:44.301Z,0
2017-12-22T01:25:44.293Z,0
2017-12-22T01:26:44.544Z,0
2017-12-22T01:27:44.309Z,0
2017-12-22T01:28:44.285Z,0
2017-12-22T01:29:44.265Z,0
2017-12-22T01:30:44.528Z,0
2017-12-22T01:31:44.277Z,0
2017-12-22T01:32:47.207Z,0
2017-12-22T01:33:44.506Z,0
2017-12-22T01:34:44.245Z,0
2017-12-22T01:35:44.492Z,0
2017-12-22T01:36:43.729Z,0
2017-12-22T01:37:44.225Z,0
2017-12-22T01:38:44.487Z,0
2017-12-22T01:39:43.964Z,0
2017-12-22T01:40:43.729Z,0
2017-12-22T01:41:43.965Z,0
2017-12-22T01:42:44.455Z,0
2017-12-22T01:43:44.450Z,0
2017-12-22T01:44:44.514Z,0
2017-12-22T01:45:44.441Z,0
2017-12-22T01:46:44.438Z,0
2017-12-22T01:47:45.223Z,0
2017-12-22T01:48:44.170Z,0
2017-12-22T01:49:44.430Z,0
2017-12-22T01:50:44.414Z,0
2017-12-22T01:51:44.402Z,0
2017-12-22T01:52:44.429Z,0
2017-12-22T01:53:44.139Z,0
2017-12-22T01:54:44.390Z,0
2017-12-22T01:55:44.394Z,0
2017-12-22T01:56:44.373Z,0
2017-12-22T01:57:44.457Z,0
2017-12-22T01:58:44.365Z,0
2017-12-22T01:59:44.112Z,0
2017-12-22T02:00:44.364Z,0
2017-12-22T02:01:44.363Z,0
2017-12-22T02:02:44.087Z,0
2017-12-22T02:03:44.535Z,0
2017-12-22T02:04:44.092Z,0
2017-12-22T02:05:44.321Z,0
2017-12-22T02:06:44.322Z,0
2017-12-22T02:07:44.312Z,0
2017-12-22T02:08:44.066Z,0
2017-12-22T02:09:44.309Z,0
2017-12-22T02:10:44.314Z,0
2017-12-22T02:11:43.797Z,0
2017-12-22T02:12:44.299Z,0
2017-12-22T02:13:44.277Z,0
2017-12-22T02:14:44.026Z,0
2017-12-22T02:15:44.274Z,0
2017-12-22T02:16:44.031Z,0
2017-12-22T02:17:44.269Z,0
2017-12-22T02:18:44.258Z,0
2017-12-22T02:19:44.002Z,0
2017-12-22T02:20:44.251Z,0
2017-12-22T02:21:43.980Z,0
2017-12-22T02:22:43.999Z,0
2017-12-22T02:23:43.728Z,0
2017-12-22T02:24:44.225Z,0
2017-12-22T02:25:43.966Z,0
2017-12-22T02:26:43.948Z,0
2017-12-22T02:27:44.196Z,0
2017-12-22T02:28:44.195Z,0
2017-12-22T02:29:43.684Z,0
2017-12-22T02:30:44.190Z,0
2017-12-22T02:31:44.199Z,0
2017-12-22T02:32:43.930Z,0
2017-12-22T02:33:44.978Z,0
2017-12-22T02:34:43.957Z,0
2017-12-22T02:35:43.908Z,0
2017-12-22T02:36:44.162Z,0
2017-12-22T02:37:43.907Z,0
2017-12-22T02:38:43.888Z,0
2017-12-22T02:39:43.877Z,0
2017-12-22T02:40:43.940Z,0
2017-12-22T02:41:43.886Z,0
2017-12-22T02:42:43.879Z,0
2017-12-22T02:43:44.122Z,0
2017-12-22T02:44:43.852Z,0
2017-12-22T02:45:44.102Z,0
2017-12-22T02:46:43.592Z,0
2017-12-22T02:47:43.858Z,0
2017-12-22T02:48:44.108Z,0
2017-12-22T02:49:44.095Z,0
2017-12-22T02:50:43.836Z,0
2017-12-22T02:51:44.068Z,0
2017-12-22T02:52:43.814Z,0
2017-12-22T02:53:44.059Z,0
2017-12-22T02:54:43.579Z,0
2017-12-22T02:55:43.797Z,0
2017-12-22T02:56:43.808Z,0
2017-12-22T02:57:44.033Z,0
2017-12-22T02:58:43.774Z,0
2017-12-22T02:59:44.042Z,0
2017-12-22T03:00:43.841Z,0
2017-12-22T03:01:44.008Z,0
2017-12-22T03:02:44.008Z,0
2017-12-22T03:03:47.760Z,0
2017-12-22T03:04:43.767Z,0
2017-12-22T03:05:43.988Z,0
2017-12-22T03:06:43.735Z,0
2017-12-22T03:07:43.478Z,0
2017-12-22T03:08:43.717Z,0
2017-12-22T03:09:43.464Z,0
2017-12-22T03:10:43.723Z,0
2017-12-22T03:11:43.766Z,0
2017-12-22T03:12:43.954Z,0
2017-12-22T03:13:43.954Z,0
2017-12-22T03:14:43.953Z,0
2017-12-22T03:15:43.937Z,0
2017-12-22T03:16:43.438Z,0
2017-12-22T03:17:43.687Z,0
2017-12-22T03:18:43.926Z,0
2017-12-22T03:19:44.034Z,0
2017-12-22T03:20:44.021Z,0
2017-12-22T03:21:43.919Z,0
2017-12-22T03:22:43.641Z,0
2017-12-22T03:23:43.646Z,0
2017-12-22T03:24:43.884Z,0
2017-12-22T03:25:43.631Z,0
2017-12-22T03:26:43.884Z,0
2017-12-22T03:27:43.880Z,0
2017-12-22T03:28:43.870Z,0
2017-12-22T03:29:43.871Z,0
2017-12-22T03:30:43.882Z,0
2017-12-22T03:31:43.596Z,0
2017-12-22T03:32:43.844Z,0
2017-12-22T03:33:43.599Z,0
2017-12-22T03:34:45.102Z,0
2017-12-22T03:35:43.632Z,0
2017-12-22T03:36:43.824Z,0
2017-12-22T03:37:43.563Z,0
2017-12-22T03:38:43.591Z,0
2017-12-22T03:39:43.559Z,0
2017-12-22T03:40:43.815Z,0
2017-12-22T03:41:43.581Z,0
2017-12-22T03:42:43.545Z,0
2017-12-22T03:43:43.537Z,0
2017-12-22T03:44:43.530Z,0
2017-12-22T03:45:43.527Z,0
2017-12-22T03:46:43.523Z,0
2017-12-22T03:47:43.525Z,0
2017-12-22T03:48:43.517Z,0
2017-12-22T03:49:43.258Z,0
2017-12-22T03:50:43.764Z,0
2017-12-22T03:51:43.523Z,0
2017-12-22T03:52:43.493Z,0
2017-12-22T03:53:43.238Z,0
2017-12-22T03:54:43.729Z,0
2017-12-22T03:55:43.474Z,0
2017-12-22T03:56:43.726Z,0
2017-12-22T03:57:43.211Z,0
2017-12-22T03:58:43.217Z,0
2017-12-22T03:59:43.719Z,0
2017-12-22T04:00:43.719Z,0
2017-12-22T04:01:43.459Z,0
2017-12-22T04:02:43.708Z,0
2017-12-22T04:03:43.428Z,0
2017-12-22T04:04:43.430Z,0
2017-12-22T04:05:43.424Z,0
2017-12-22T04:06:43.420Z,0
2017-12-22T04:07:43.673Z,0
2017-12-22T04:08:43.665Z,0
2017-12-22T04:09:43.407Z,0
2017-12-22T04:10:43.654Z,0
2017-12-22T04:11:43.147Z,0
2017-12-22T04:12:43.641Z,0
2017-12-22T04:13:43.643Z,0
2017-12-22T04:14:43.634Z,0
2017-12-22T04:15:43.629Z,0
2017-12-22T04:16:43.630Z,0
2017-12-22T04:17:43.635Z,0
2017-12-22T04:18:43.364Z,0
2017-12-22T04:19:43.350Z,0
2017-12-22T04:20:43.617Z,0
2017-12-22T04:21:43.599Z,0
2017-12-22T04:22:43.334Z,0
2017-12-22T04:23:43.342Z,0
2017-12-22T04:24:43.581Z,0
2017-12-22T04:25:43.593Z,0
2017-12-22T04:26:43.318Z,0
2017-12-22T04:27:43.569Z,0
2017-12-22T04:28:43.324Z,0
2017-12-22T04:29:43.308Z,0
2017-12-22T04:30:43.557Z,0
2017-12-22T04:31:43.290Z,0
2017-12-22T04:32:43.544Z,0
2017-12-22T04:33:43.274Z,0
2017-12-22T04:34:47.821Z,0
2017-12-22T04:35:43.520Z,0
2017-12-22T04:36:43.524Z,0
2017-12-22T04:37:43.265Z,0
2017-12-22T04:38:43.509Z,0
2017-12-22T04:39:43.503Z,0
2017-12-22T04:40:42.994Z,0
2017-12-22T04:41:43.499Z,0
2017-12-22T04:42:43.485Z,0
2017-12-22T04:43:43.237Z,0
2017-12-22T04:44:43.489Z,0
2017-12-22T04:45:43.218Z,0
2017-12-22T04:46:43.469Z,0
2017-12-22T04:47:43.457Z,0
2017-12-22T04:48:43.464Z,0
2017-12-22T04:49:44.399Z,0
2017-12-22T04:50:42.694Z,0
2017-12-22T04:51:43.440Z,0
2017-12-22T04:52:43.185Z,0
2017-12-22T04:53:43.439Z,0
2017-12-22T04:54:43.427Z,0
2017-12-22T04:55:43.170Z,0
2017-12-22T04:56:43.419Z,0
2017-12-22T04:57:43.417Z,0
2017-12-22T04:58:43.442Z,0
2017-12-22T04:59:43.951Z,0
2017-12-22T05:00:43.399Z,0
2017-12-22T05:01:43.418Z,0
2017-12-22T05:02:43.145Z,0
2017-12-22T05:03:43.375Z,0
2017-12-22T05:04:47.275Z,0
2017-12-22T05:05:43.371Z,0
2017-12-22T05:06:43.103Z,0
2017-12-22T05:07:43.364Z,0
2017-12-22T05:08:42.855Z,0
2017-12-22T05:09:43.102Z,0
2017-12-22T05:10:43.101Z,0
2017-12-22T05:11:43.338Z,0
2017-12-22T05:12:43.102Z,0
2017-12-22T05:13:43.078Z,0
2017-12-22T05:14:43.314Z,0
2017-12-22T05:15:43.322Z,0
2017-12-22T05:16:43.320Z,0
2017-12-22T05:17:43.311Z,0
2017-12-22T05:18:43.321Z,0
2017-12-22T05:19:43.306Z,0
2017-12-22T05:20:44.154Z,0
2017-12-22T05:21:43.291Z,0
2017-12-22T05:22:43.283Z,0
2017-12-22T05:23:43.034Z,0
2017-12-22T05:24:43.026Z,0
2017-12-22T05:25:42.767Z,0
2017-12-22T05:26:43.257Z,0
2017-12-22T05:27:43.262Z,0
2017-12-22T05:28:43.014Z,0
2017-12-22T05:29:43.264Z,0
2017-12-22T05:30:43.242Z,0
2017-12-22T05:31:42.983Z,0
2017-12-22T05:32:43.231Z,0
2017-12-22T05:33:42.713Z,0
2017-12-22T05:34:42.717Z,0
2017-12-22T05:35:44.816Z,0
2017-12-22T05:36:42.951Z,0
2017-12-22T05:37:42.953Z,0
2017-12-22T05:38:42.936Z,0
2017-12-22T05:39:42.937Z,0
2017-12-22T05:40:42.933Z,0
2017-12-22T05:41:42.925Z,0
2017-12-22T05:42:43.177Z,0
2017-12-22T05:43:43.171Z,0
2017-12-22T05:44:43.396Z,0
2017-12-22T05:45:43.152Z,0
2017-12-22T05:46:43.152Z,0
2017-12-22T05:47:42.884Z,0
2017-12-22T05:48:43.151Z,0
2017-12-22T05:49:43.148Z,0
2017-12-22T05:50:44.029Z,0
2017-12-22T05:51:43.129Z,0
2017-12-22T05:52:43.120Z,0
2017-12-22T05:53:42.895Z,0
2017-12-22T05:54:42.855Z,0
2017-12-22T05:55:42.847Z,0
2017-12-22T05:56:43.100Z,0
2017-12-22T05:57:43.090Z,0
2017-12-22T05:58:42.832Z,0
2017-12-22T05:59:43.089Z,0
2017-12-22T06:00:43.011Z,0
2017-12-22T06:01:42.608Z,0
2017-12-22T06:02:43.076Z,0
2017-12-22T06:03:43.060Z,0
2017-12-22T06:04:42.828Z,0
2017-12-22T06:05:43.743Z,0
2017-12-22T06:06:43.042Z,0
2017-12-22T06:07:43.037Z,0
2017-12-22T06:08:43.028Z,0
2017-12-22T06:09:43.036Z,0
2017-12-22T06:10:42.529Z,0
2017-12-22T06:11:42.764Z,0
2017-12-22T06:12:43.019Z,0
2017-12-22T06:13:43.018Z,0
2017-12-22T06:14:42.499Z,0
2017-12-22T06:15:43.008Z,0
2017-12-22T06:16:42.747Z,0
2017-12-22T06:17:42.223Z,0
2017-12-22T06:18:42.479Z,0
2017-12-22T06:19:42.467Z,0
2017-12-22T06:20:42.973Z,0
2017-12-22T06:21:44.078Z,0
2017-12-22T06:22:42.960Z,0
2017-12-22T06:23:42.969Z,0
2017-12-22T06:24:42.691Z,0
2017-12-22T06:25:42.954Z,0
2017-12-22T06:26:42.682Z,0
2017-12-22T06:27:42.673Z,0
2017-12-22T06:28:42.924Z,0
2017-12-22T06:29:42.919Z,0
2017-12-22T06:30:42.915Z,0
2017-12-22T06:31:42.938Z,0
2017-12-22T06:32:42.911Z,0
2017-12-22T06:33:42.388Z,0
2017-12-22T06:34:42.721Z,0
2017-12-22T06:35:42.934Z,0
2017-12-22T06:36:45.881Z,0
2017-12-22T06:37:42.624Z,0
2017-12-22T06:38:42.623Z,0
2017-12-22T06:39:42.629Z,0
2017-12-22T06:40:42.608Z,0
2017-12-22T06:41:42.882Z,0
2017-12-22T06:42:42.897Z,0
2017-12-22T06:43:42.910Z,0
2017-12-22T06:44:42.852Z,0
2017-12-22T06:45:42.626Z,0
2017-12-22T06:46:42.831Z,0
2017-12-22T06:47:42.592Z,0
2017-12-22T06:48:42.574Z,0
2017-12-22T06:49:42.821Z,0
2017-12-22T06:50:42.816Z,0
2017-12-22T06:51:44.471Z,0
2017-12-22T06:52:42.291Z,0
2017-12-22T06:53:42.543Z,0
2017-12-22T06:54:42.549Z,0
2017-12-22T06:55:42.629Z,0
2017-12-22T06:56:42.779Z,0
2017-12-22T06:57:42.519Z,0
2017-12-22T06:58:42.781Z,0
2017-12-22T06:59:42.763Z,0
2017-12-22T07:00:42.764Z,0
2017-12-22T07:01:42.765Z,0
2017-12-22T07:02:42.753Z,0
2017-12-22T07:03:42.256Z,0
2017-12-22T07:04:42.750Z,0
2017-12-22T07:05:42.490Z,0
2017-12-22T07:06:42.775Z,0
2017-12-22T07:07:42.481Z,0
2017-12-22T07:08:41.975Z,0
2017-12-22T07:09:42.464Z,0
2017-12-22T07:10:42.506Z,0
2017-12-22T07:11:42.517Z,0
2017-12-22T07:12:42.197Z,0
2017-12-22T07:13:42.185Z,0
2017-12-22T07:14:42.686Z,0
2017-12-22T07:15:42.434Z,0
2017-12-22T07:16:42.679Z,0
2017-12-22T07:17:42.426Z,0
2017-12-22T07:18:42.175Z,0
2017-12-22T07:19:42.674Z,0
2017-12-22T07:20:42.415Z,0
2017-12-22T07:21:43.456Z,0
2017-12-22T07:22:42.403Z,0
2017-12-22T07:23:42.396Z,0
2017-12-22T07:24:42.399Z,0
2017-12-22T07:25:42.626Z,0
2017-12-22T07:26:42.627Z,0
2017-12-22T07:27:42.375Z,0
2017-12-22T07:28:42.611Z,5
2017-12-22T07:29:42.626Z,5
2017-12-22T07:30:42.617Z,5
2017-12-22T07:31:41.838Z,5
2017-12-22T07:32:42.342Z,5
2017-12-22T07:33:42.333Z,5
2017-12-22T07:34:42.587Z,5
2017-12-22T07:35:42.572Z,5
2017-12-22T07:36:42.314Z,5
2017-12-22T07:37:45.828Z,5
2017-12-22T07:38:42.562Z,5
2017-12-22T07:39:42.308Z,10
2017-12-22T07:40:42.300Z,10
2017-12-22T07:41:41.780Z,10
2017-12-22T07:42:42.282Z,10
2017-12-22T07:43:42.549Z,10
2017-12-22T07:44:42.269Z,10
2017-12-22T07:45:42.522Z,10
2017-12-22T07:46:42.518Z,10
2017-12-22T07:47:42.261Z,10
2017-12-22T07:48:42.006Z,15
2017-12-22T07:49:42.249Z,15
2017-12-22T07:50:42.293Z,15
2017-12-22T07:51:42.247Z,15
2017-12-22T07:52:43.314Z,15
2017-12-22T07:53:42.230Z,15
2017-12-22T07:54:42.325Z,20
2017-12-22T07:55:42.249Z,20
2017-12-22T07:56:42.261Z,20
2017-12-22T07:57:42.468Z,20
2017-12-22T07:58:42.198Z,20
2017-12-22T07:59:42.204Z,20
2017-12-22T08:00:42.189Z,20
2017-12-22T08:01:42.447Z,20
2017-12-22T08:02:41.935Z,20
2017-12-22T08:03:42.438Z,25
2017-12-22T08:04:42.425Z,25
2017-12-22T08:05:41.916Z,25
2017-12-22T08:06:42.424Z,25
2017-12-22T08:07:43.518Z,25
2017-12-22T08:08:42.150Z,25
2017-12-22T08:09:42.418Z,25
2017-12-22T08:10:42.200Z,30
2017-12-22T08:11:42.386Z,30
2017-12-22T08:12:42.451Z,30
2017-12-22T08:13:42.387Z,30
2017-12-22T08:14:42.125Z,30
2017-12-22T08:15:42.128Z,30
2017-12-22T08:16:41.859Z,30
2017-12-22T08:17:42.108Z,30
2017-12-22T08:18:42.349Z,25
2017-12-22T08:19:42.127Z,25
2017-12-22T08:20:42.088Z,25
2017-12-22T08:21:42.385Z,25
2017-12-22T08:22:42.077Z,25
2017-12-22T08:23:43.384Z,20
2017-12-22T08:24:42.077Z,20
2017-12-22T08:25:42.327Z,20
2017-12-22T08:26:42.116Z,20
2017-12-22T08:27:42.053Z,20
2017-12-22T08:28:42.300Z,20
2017-12-22T08:29:41.801Z,20
2017-12-22T08:30:41.854Z,20
2017-12-22T08:31:42.363Z,20
2017-12-22T08:32:42.291Z,20
2017-12-22T08:33:42.332Z,20
2017-12-22T08:34:42.285Z,20
2017-12-22T08:35:42.270Z,20
2017-12-22T08:37:14.138Z,25
2017-12-22T08:37:42.025Z,25
2017-12-22T08:38:44.707Z,25
2017-12-22T08:39:41.742Z,25
2017-12-22T08:40:42.250Z,25
2017-12-22T08:41:41.735Z,30
2017-12-22T08:42:41.982Z,30
2017-12-22T08:43:42.247Z,30
2017-12-22T08:44:41.980Z,30
2017-12-22T08:45:41.976Z,30
2017-12-22T08:46:42.221Z,30
2017-12-22T08:47:42.211Z,30
2017-12-22T08:48:42.203Z,30
2017-12-22T08:49:42.204Z,30
2017-12-22T08:50:41.953Z,30
2017-12-22T08:51:41.993Z,30
2017-12-22T08:52:42.199Z,30
2017-12-22T08:53:42.779Z,30
2017-12-22T08:54:42.182Z,35
2017-12-22T08:55:42.178Z,35
2017-12-22T08:56:41.698Z,35
2017-12-22T08:57:41.963Z,40
2017-12-22T08:58:42.171Z,40
2017-12-22T08:59:41.958Z,45
2017-12-22T09:00:41.896Z,45
2017-12-22T09:01:42.168Z,50
2017-12-22T09:02:41.916Z,50
2017-12-22T09:03:42.144Z,50
2017-12-22T09:04:42.145Z,55
2017-12-22T09:05:41.871Z,60
2017-12-22T09:06:42.142Z,60
2017-12-22T09:07:41.929Z,65
2017-12-22T09:08:44.219Z,65
2017-12-22T09:09:42.118Z,60
2017-12-22T09:10:42.116Z,60
2017-12-22T09:11:42.135Z,55
2017-12-22T09:12:41.859Z,50
2017-12-22T09:13:41.598Z,50
2017-12-22T09:14:42.102Z,40
2017-12-22T09:15:42.102Z,35
2017-12-22T09:16:42.083Z,35
2017-12-22T09:17:41.839Z,30
2017-12-22T09:18:41.826Z,30
2017-12-22T09:19:42.066Z,30
2017-12-22T09:20:41.830Z,25
2017-12-22T09:21:42.079Z,25
2017-12-22T09:22:42.069Z,20
2017-12-22T09:23:41.863Z,20
2017-12-22T09:24:43.899Z,25
2017-12-22T09:25:41.795Z,25
2017-12-22T09:26:42.047Z,25
2017-12-22T09:27:42.035Z,30
2017-12-22T09:28:41.540Z,30
2017-12-22T09:29:41.524Z,30
2017-12-22T09:30:41.797Z,35
2017-12-22T09:31:41.558Z,35
2017-12-22T09:32:41.573Z,40
2017-12-22T09:33:41.772Z,40
2017-12-22T09:34:41.760Z,40
2017-12-22T09:35:42.075Z,40
2017-12-22T09:36:41.550Z,45
2017-12-22T09:37:42.011Z,45
2017-12-22T09:38:41.739Z,45
2017-12-22T09:39:44.470Z,45
2017-12-22T09:40:41.534Z,50
2017-12-22T09:41:41.723Z,50
2017-12-22T09:42:41.771Z,50
2017-12-22T09:43:41.973Z,45
2017-12-22T09:44:42.032Z,45
2017-12-22T09:45:41.714Z,45
2017-12-22T09:46:41.453Z,40
2017-12-22T09:47:41.756Z,40
2017-12-22T09:48:41.448Z,40
2017-12-22T09:49:41.443Z,40
2017-12-22T09:50:41.690Z,45
2017-12-22T09:51:41.928Z,45
2017-12-22T09:52:41.673Z,45
2017-12-22T09:53:42.093Z,45
2017-12-22T09:54:41.740Z,50
2017-12-22T09:55:41.442Z,50
2017-12-22T09:56:41.657Z,50
2017-12-22T09:57:41.664Z,45
2017-12-22T09:58:41.658Z,45
2017-12-22T09:59:41.659Z,40
2017-12-22T10:00:41.638Z,40
2017-12-22T10:01:41.893Z,40
2017-12-22T10:02:41.377Z,40
2017-12-22T10:03:41.625Z,40
2017-12-22T10:04:41.876Z,40
2017-12-22T10:05:41.415Z,40
2017-12-22T10:06:41.636Z,40
2017-12-22T10:07:41.372Z,40
2017-12-22T10:08:41.354Z,45
2017-12-22T10:09:41.685Z,50
2017-12-22T10:10:41.853Z,50
2017-12-22T10:11:41.091Z,50
2017-12-22T10:12:41.859Z,55
2017-12-22T10:13:41.851Z,55
2017-12-22T10:14:41.848Z,55
2017-12-22T10:15:41.325Z,50
2017-12-22T10:16:41.084Z,50
2017-12-22T10:17:41.581Z,45
2017-12-22T10:18:41.826Z,45
2017-12-22T10:19:41.331Z,45
2017-12-22T10:20:42.054Z,45
2017-12-22T10:21:41.557Z,45
2017-12-22T10:52:21.236Z,55
2017-12-22T10:53:20.684Z,55
2017-12-22T10:54:20.419Z,55
2017-12-22T10:55:21.743Z,55
2017-12-22T10:56:20.169Z,55
2017-12-22T10:57:20.830Z,55
2017-12-22T10:58:20.633Z,55
2017-12-22T10:59:20.360Z,55
2017-12-22T11:00:21.462Z,55
2017-12-22T11:01:20.617Z,55
2017-12-22T11:02:20.853Z,55
2017-12-22T11:03:20.344Z,55
2017-12-22T11:04:20.338Z,60
2017-12-22T11:05:21.579Z,60
2017-12-22T11:06:20.340Z,60
2017-12-22T11:07:21.384Z,55
2017-12-22T11:08:20.583Z,55
2017-12-22T11:09:20.305Z,60
2017-12-22T11:10:21.347Z,55
2017-12-22T11:11:20.563Z,55
2017-12-22T11:12:22.447Z,60
2017-12-22T11:13:20.538Z,55
2017-12-22T11:14:20.538Z,55
2017-12-22T11:15:21.909Z,60
2017-12-22T11:16:20.284Z,60
2017-12-22T11:17:19.527Z,60
2017-12-22T11:18:20.258Z,60
2017-12-22T11:19:20.259Z,60
2017-12-22T11:20:21.880Z,60
2017-12-22T11:21:20.512Z,65
2017-12-22T11:22:23.449Z,65
2017-12-22T11:23:20.259Z,60
2017-12-22T11:24:20.493Z,65
2017-12-22T11:25:21.942Z,65
2017-12-22T11:26:20.499Z,65
2017-12-22T11:27:20.476Z,65
2017-12-22T11:28:20.237Z,65
2017-12-22T11:29:20.466Z,70
2017-12-22T11:30:20.839Z,75
2017-12-22T11:31:19.696Z,75
2017-12-22T11:32:20.213Z,80
2017-12-22T11:33:20.212Z,80
2017-12-22T11:34:20.215Z,80
2017-12-22T11:35:20.916Z,75
2017-12-22T11:36:20.455Z,70
2017-12-22T11:37:20.192Z,70
2017-12-22T11:38:20.448Z,70
2017-12-22T11:39:19.944Z,70
2017-12-22T11:40:20.732Z,70
2017-12-22T11:41:20.439Z,75
2017-12-22T11:42:20.415Z,80
2017-12-22T11:43:19.902Z,85
2017-12-22T11:44:20.406Z,85
2017-12-22T11:45:21.501Z,85
2017-12-22T11:46:20.424Z,80
2017-12-22T11:47:19.909Z,75
2017-12-22T11:48:20.654Z,75
2017-12-22T11:49:19.633Z,75
2017-12-22T11:50:21.304Z,70
2017-12-22T11:51:19.897Z,65
2017-12-22T11:52:20.139Z,60
2017-12-22T11:53:20.944Z,60
2017-12-22T11:54:19.873Z,55
2017-12-22T11:55:21.638Z,55
2017-12-22T11:56:20.384Z,55
2017-12-22T11:57:20.148Z,55
2017-12-22T11:58:20.111Z,50
2017-12-22T11:59:19.864Z,50
2017-12-22T12:00:21.867Z,50
2017-12-22T12:01:20.113Z,50
2017-12-22T12:02:20.102Z,45
2017-12-22T12:03:20.351Z,45
2017-12-22T12:04:19.842Z,40
2017-12-22T12:05:21.664Z,40
2017-12-22T12:06:20.120Z,45
2017-12-22T12:07:20.084Z,45
2017-12-22T12:08:21.236Z,45
2017-12-22T12:09:19.821Z,45
2017-12-22T12:10:21.393Z,45
2017-12-22T12:11:20.076Z,50
2017-12-22T12:12:20.343Z,50
2017-12-22T12:13:20.318Z,50
2017-12-22T12:14:20.054Z,50
2017-12-22T12:15:20.720Z,50
2017-12-22T12:16:19.570Z,50
2017-12-22T12:17:20.056Z,50
2017-12-22T12:18:20.046Z,50
2017-12-22T12:19:19.537Z,50
2017-12-22T12:20:21.095Z,50
2017-12-22T12:21:20.298Z,50
2017-12-22T12:22:20.287Z,50
2017-12-22T12:23:22.237Z,50
2017-12-22T12:24:20.033Z,45
2017-12-22T12:25:22.119Z,40
2017-12-22T12:26:19.766Z,40
2017-12-22T12:27:19.770Z,35
2017-12-22T12:28:20.021Z,35
2017-12-22T12:29:20.017Z,35
2017-12-22T12:30:21.244Z,35
2017-12-22T12:31:19.759Z,30
2017-12-22T12:32:20.001Z,30
2017-12-22T12:33:20.268Z,30
2017-12-22T12:34:20.254Z,30
2017-12-22T12:35:21.313Z,25
2017-12-22T12:36:20.242Z,25
2017-12-22T12:37:19.993Z,25
2017-12-22T12:38:19.741Z,25
2017-12-22T12:39:19.535Z,25
2017-12-22T12:40:21.364Z,20
2017-12-22T12:41:19.965Z,20
2017-12-22T12:42:20.231Z,20
2017-12-22T12:43:20.328Z,20
2017-12-22T12:44:19.709Z,20
2017-12-22T12:45:20.885Z,20
2017-12-22T12:46:20.233Z,20
2017-12-22T12:47:20.230Z,20
2017-12-22T12:48:19.684Z,15
2017-12-22T12:49:20.191Z,15
2017-12-22T12:50:20.977Z,15
2017-12-22T12:51:19.966Z,15
2017-12-22T12:52:20.200Z,15
2017-12-22T12:53:20.196Z,15
2017-12-22T12:54:20.834Z,15
2017-12-22T12:55:20.881Z,15
2017-12-22T12:56:19.924Z,10
2017-12-22T12:57:20.174Z,10
2017-12-22T12:58:20.187Z,10
2017-12-22T12:59:20.173Z,10
2017-12-22T13:00:21.588Z,10
2017-12-22T13:01:19.672Z,10
2017-12-22T13:02:19.911Z,10
2017-12-22T13:03:20.157Z,10
2017-12-22T13:04:20.265Z,10
2017-12-22T13:05:20.602Z,10
2017-12-22T13:06:20.144Z,10
2017-12-22T13:07:19.646Z,10
2017-12-22T13:08:20.187Z,10
2017-12-22T13:09:20.494Z,10
2017-12-22T13:10:20.739Z,10
2017-12-22T13:11:20.148Z,10
2017-12-22T13:12:20.137Z,10
2017-12-22T13:13:19.865Z,10
2017-12-22T13:14:19.851Z,10
2017-12-22T13:15:21.829Z,10
2017-12-22T13:16:20.109Z,10
2017-12-22T13:17:19.848Z,10
2017-12-22T13:18:20.109Z,10
2017-12-22T13:19:19.857Z,10
2017-12-22T13:20:20.712Z,15
2017-12-22T13:21:19.834Z,15
2017-12-22T13:22:19.836Z,15
2017-12-22T13:23:19.815Z,20
2017-12-22T13:24:20.934Z,20
2017-12-22T13:25:21.061Z,20
2017-12-22T13:26:19.581Z,20
2017-12-22T13:27:20.101Z,20
2017-12-22T13:28:19.807Z,25
2017-12-22T13:29:19.794Z,25
2017-12-22T13:30:20.859Z,25
2017-12-22T13:31:19.790Z,25
2017-12-22T13:32:19.798Z,25
2017-12-22T13:33:20.042Z,25
2017-12-22T13:34:20.032Z,25
2017-12-22T13:35:21.279Z,25
2017-12-22T13:36:20.028Z,25
2017-12-22T13:37:19.794Z,25
2017-12-22T13:38:19.806Z,30
2017-12-22T13:39:24.121Z,30
2017-12-22T13:40:21.650Z,30
2017-12-22T13:41:19.751Z,30
2017-12-22T13:42:20.005Z,35
2017-12-22T13:43:20.010Z,35
2017-12-22T13:44:19.738Z,40
2017-12-22T13:45:20.704Z,40
2017-12-22T13:46:19.770Z,35
2017-12-22T13:47:19.981Z,35
2017-12-22T13:48:19.728Z,30
2017-12-22T13:49:19.992Z,30
2017-12-22T13:50:21.063Z,30
2017-12-22T13:51:19.983Z,25
2017-12-22T13:52:19.966Z,25
2017-12-22T13:53:19.727Z,25
2017-12-22T13:54:19.960Z,25
2017-12-22T13:55:22.269Z,20
2017-12-22T13:56:19.947Z,20
2017-12-22T13:57:19.702Z,15
2017-12-22T13:58:19.945Z,15
2017-12-22T13:59:19.948Z,10
2017-12-22T14:00:21.299Z,10
2017-12-22T14:01:19.450Z,10
2017-12-22T14:02:19.693Z,10
2017-12-22T14:03:19.180Z,10
2017-12-22T14:04:19.929Z,10
2017-12-22T14:05:21.003Z,10
2017-12-22T14:06:19.416Z,10
2017-12-22T14:07:19.429Z,10
2017-12-22T14:08:19.921Z,10
2017-12-22T14:09:19.655Z,5
2017-12-22T14:10:25.113Z,5
2017-12-22T14:11:19.902Z,5
2017-12-22T14:12:19.394Z,5
2017-12-22T14:13:19.382Z,5
2017-12-22T14:14:19.148Z,5
2017-12-22T14:15:21.619Z,5
2017-12-22T14:16:19.659Z,5
2017-12-22T14:17:19.639Z,5
2017-12-22T14:18:19.633Z,5
2017-12-22T14:19:19.119Z,5
2017-12-22T14:20:21.631Z,5
2017-12-22T14:21:19.604Z,5
2017-12-22T14:22:19.847Z,5
2017-12-22T14:23:19.605Z,5
2017-12-22T14:24:19.860Z,5
2017-12-22T14:25:22.085Z,5
2017-12-22T14:26:19.843Z,5
2017-12-22T14:27:19.844Z,5
2017-12-22T14:28:19.837Z,5
2017-12-22T14:29:19.582Z,5
2017-12-22T14:30:21.098Z,5
2017-12-22T14:31:19.566Z,5
2017-12-22T14:32:19.571Z,5
2017-12-22T14:33:19.555Z,5
2017-12-22T14:34:19.818Z,5
2017-12-22T14:35:20.523Z,5
2017-12-22T14:36:19.041Z,5
2017-12-22T14:37:19.548Z,5
2017-12-22T14:38:19.796Z,5
2017-12-22T14:39:19.740Z,5
2017-12-22T14:40:20.619Z,5
2017-12-22T14:41:19.542Z,5
2017-12-22T14:42:19.527Z,5
2017-12-22T14:43:19.515Z,5
2017-12-22T14:44:19.517Z,5
2017-12-22T14:45:21.199Z,5
2017-12-22T14:46:19.770Z,5
2017-12-22T14:47:19.762Z,5
2017-12-22T14:48:19.499Z,0
2017-12-22T14:49:19.746Z,0
2017-12-22T14:50:20.647Z,0
2017-12-22T14:51:19.491Z,0
2017-12-22T14:52:19.737Z,0
2017-12-22T14:53:19.762Z,0
2017-12-22T14:54:19.746Z,0
2017-12-22T14:55:20.615Z,0
2017-12-22T14:56:22.858Z,0
2017-12-22T14:57:19.717Z,0
2017-12-22T14:58:19.731Z,0
2017-12-22T14:59:19.729Z,0
2017-12-22T15:00:21.072Z,0
2017-12-22T15:01:18.953Z,0
2017-12-22T15:02:19.453Z,0
2017-12-22T15:03:19.716Z,0